sensor_id;sensor_type;location;lat;lon;timestamp;P1;durP1;ratioP1;P2;durP2;ratioP2
52015;SDS011;38032;53.326;6.472;2022-07-18T00:00:06;9.55;;;6.18;;
52015;SDS011;38032;53.326;6.472;2022-07-18T00:02:33;9.63;;;6.53;;
52015;SDS011;38032;53.326;6.472;2022-07-18T00:04:59;10.20;;;7.20;;
52015;SDS011;38032;53.326;6.472;2022-07-18T00:07:25;8.98;;;6.47;;
52015;SDS011;38032;53.326;6.472;2022-07-18T00:09:51;7.78;;;6.32;;
52015;SDS011;38032;53.326;6.472;2022-07-18T00:12:17;10.43;;;7.72;;
52015;SDS011;38032;53.326;6.472;2022-07-18T00:14:42;10.70;;;7.07;;
52015;SDS011;38032;53.326;6.472;2022-07-18T00:17:08;10.00;;;6.60;;
52015;SDS011;38032;53.326;6.472;2022-07-18T00:19:35;10.52;;;6.82;;
52015;SDS011;38032;53.326;6.472;2022-07-18T00:22:01;10.85;;;7.13;;
52015;SDS011;38032;53.326;6.472;2022-07-18T00:24:27;10.70;;;7.07;;
52015;SDS011;38032;53.326;6.472;2022-07-18T00:26:54;9.13;;;7.22;;
52015;SDS011;38032;53.326;6.472;2022-07-18T00:29:19;10.05;;;7.35;;
52015;SDS011;38032;53.326;6.472;2022-07-18T00:31:45;13.50;;;7.07;;
52015;SDS011;38032;53.326;6.472;2022-07-18T00:34:11;10.18;;;6.95;;
52015;SDS011;38032;53.326;6.472;2022-07-18T00:36:37;12.57;;;7.18;;
52015;SDS011;38032;53.326;6.472;2022-07-18T00:39:03;8.48;;;6.75;;
52015;SDS011;38032;53.326;6.472;2022-07-18T00:41:29;9.13;;;6.78;;
52015;SDS011;38032;53.326;6.472;2022-07-18T00:43:55;9.60;;;6.57;;
52015;SDS011;38032;53.326;6.472;2022-07-18T00:46:24;8.32;;;6.50;;
52015;SDS011;38032;53.326;6.472;2022-07-18T00:48:51;13.45;;;6.60;;
52015;SDS011;38032;53.326;6.472;2022-07-18T00:51:17;9.13;;;6.65;;
52015;SDS011;38032;53.326;6.472;2022-07-18T00:53:44;10.70;;;7.70;;
52015;SDS011;38032;53.326;6.472;2022-07-18T00:56:10;8.82;;;6.93;;
52015;SDS011;38032;53.326;6.472;2022-07-18T00:58:38;10.95;;;7.03;;
52015;SDS011;38032;53.326;6.472;2022-07-18T01:01:04;10.65;;;6.90;;
52015;SDS011;38032;53.326;6.472;2022-07-18T01:03:49;8.82;;;6.88;;
52015;SDS011;38032;53.326;6.472;2022-07-18T01:06:15;9.15;;;7.43;;
52015;SDS011;38032;53.326;6.472;2022-07-18T01:08:41;13.07;;;6.90;;
52015;SDS011;38032;53.326;6.472;2022-07-18T01:11:08;9.48;;;6.93;;
52015;SDS011;38032;53.326;6.472;2022-07-18T01:13:36;9.98;;;6.95;;
52015;SDS011;38032;53.326;6.472;2022-07-18T01:16:03;10.10;;;7.03;;
52015;SDS011;38032;53.326;6.472;2022-07-18T01:18:29;9.35;;;7.05;;
52015;SDS011;38032;53.326;6.472;2022-07-18T01:20:55;11.65;;;7.55;;
52015;SDS011;38032;53.326;6.472;2022-07-18T01:23:20;9.80;;;7.57;;
52015;SDS011;38032;53.326;6.472;2022-07-18T01:25:46;9.75;;;7.45;;
52015;SDS011;38032;53.326;6.472;2022-07-18T01:28:12;10.32;;;7.45;;
52015;SDS011;38032;53.326;6.472;2022-07-18T01:30:38;13.00;;;8.00;;
52015;SDS011;38032;53.326;6.472;2022-07-18T01:33:04;11.27;;;7.45;;
52015;SDS011;38032;53.326;6.472;2022-07-18T01:35:30;9.75;;;7.65;;
52015;SDS011;38032;53.326;6.472;2022-07-18T01:37:58;11.13;;;7.90;;
52015;SDS011;38032;53.326;6.472;2022-07-18T01:40:25;10.35;;;6.80;;
52015;SDS011;38032;53.326;6.472;2022-07-18T01:42:52;11.23;;;7.82;;
52015;SDS011;38032;53.326;6.472;2022-07-18T01:45:18;7.53;;;6.32;;
52015;SDS011;38032;53.326;6.472;2022-07-18T01:47:45;8.40;;;6.68;;
52015;SDS011;38032;53.326;6.472;2022-07-18T01:50:12;14.88;;;6.90;;
52015;SDS011;38032;53.326;6.472;2022-07-18T01:52:38;8.00;;;6.28;;
52015;SDS011;38032;53.326;6.472;2022-07-18T01:55:05;12.10;;;7.03;;
52015;SDS011;38032;53.326;6.472;2022-07-18T01:57:32;10.10;;;6.82;;
52015;SDS011;38032;53.326;6.472;2022-07-18T01:59:58;10.07;;;6.30;;
52015;SDS011;38032;53.326;6.472;2022-07-18T02:02:23;12.70;;;7.25;;
52015;SDS011;38032;53.326;6.472;2022-07-18T02:04:49;11.68;;;6.88;;
52015;SDS011;38032;53.326;6.472;2022-07-18T02:07:25;9.65;;;7.40;;
52015;SDS011;38032;53.326;6.472;2022-07-18T02:09:52;9.93;;;6.97;;
52015;SDS011;38032;53.326;6.472;2022-07-18T02:12:18;12.32;;;7.68;;
52015;SDS011;38032;53.326;6.472;2022-07-18T02:14:44;11.25;;;7.63;;
52015;SDS011;38032;53.326;6.472;2022-07-18T02:17:09;9.27;;;7.15;;
52015;SDS011;38032;53.326;6.472;2022-07-18T02:19:35;11.45;;;7.10;;
52015;SDS011;38032;53.326;6.472;2022-07-18T02:22:01;10.70;;;6.70;;
52015;SDS011;38032;53.326;6.472;2022-07-18T02:24:27;13.25;;;7.13;;
52015;SDS011;38032;53.326;6.472;2022-07-18T02:26:53;10.38;;;6.55;;
52015;SDS011;38032;53.326;6.472;2022-07-18T02:29:19;9.82;;;6.85;;
52015;SDS011;38032;53.326;6.472;2022-07-18T02:31:44;14.98;;;7.15;;
52015;SDS011;38032;53.326;6.472;2022-07-18T02:34:10;10.82;;;6.95;;
52015;SDS011;38032;53.326;6.472;2022-07-18T02:36:38;9.68;;;6.30;;
52015;SDS011;38032;53.326;6.472;2022-07-18T02:39:05;9.55;;;6.75;;
52015;SDS011;38032;53.326;6.472;2022-07-18T02:41:31;9.70;;;6.57;;
52015;SDS011;38032;53.326;6.472;2022-07-18T02:43:57;11.77;;;7.57;;
52015;SDS011;38032;53.326;6.472;2022-07-18T02:46:23;10.80;;;6.30;;
52015;SDS011;38032;53.326;6.472;2022-07-18T02:48:49;10.27;;;6.78;;
52015;SDS011;38032;53.326;6.472;2022-07-18T02:51:15;10.43;;;6.85;;
52015;SDS011;38032;53.326;6.472;2022-07-18T02:53:41;7.93;;;5.97;;
52015;SDS011;38032;53.326;6.472;2022-07-18T02:56:07;9.38;;;6.78;;
52015;SDS011;38032;53.326;6.472;2022-07-18T02:58:33;10.85;;;6.35;;
52015;SDS011;38032;53.326;6.472;2022-07-18T03:00:59;10.82;;;6.38;;
52015;SDS011;38032;53.326;6.472;2022-07-18T03:03:24;10.50;;;7.10;;
52015;SDS011;38032;53.326;6.472;2022-07-18T03:05:50;9.60;;;6.57;;
52015;SDS011;38032;53.326;6.472;2022-07-18T03:08:16;11.90;;;7.07;;
52015;SDS011;38032;53.326;6.472;2022-07-18T03:10:42;9.77;;;5.97;;
52015;SDS011;38032;53.326;6.472;2022-07-18T03:13:08;10.55;;;6.57;;
52015;SDS011;38032;53.326;6.472;2022-07-18T03:15:35;9.93;;;7.20;;
52015;SDS011;38032;53.326;6.472;2022-07-18T03:18:02;10.35;;;6.47;;
52015;SDS011;38032;53.326;6.472;2022-07-18T03:20:28;12.40;;;7.43;;
52015;SDS011;38032;53.326;6.472;2022-07-18T03:22:54;10.77;;;7.20;;
52015;SDS011;38032;53.326;6.472;2022-07-18T03:25:19;11.70;;;7.15;;
52015;SDS011;38032;53.326;6.472;2022-07-18T03:27:45;11.35;;;7.22;;
52015;SDS011;38032;53.326;6.472;2022-07-18T03:30:11;12.80;;;7.43;;
52015;SDS011;38032;53.326;6.472;2022-07-18T03:32:38;12.25;;;7.20;;
52015;SDS011;38032;53.326;6.472;2022-07-18T03:35:04;11.65;;;7.13;;
52015;SDS011;38032;53.326;6.472;2022-07-18T03:37:30;10.82;;;6.90;;
52015;SDS011;38032;53.326;6.472;2022-07-18T03:39:56;11.38;;;6.60;;
52015;SDS011;38032;53.326;6.472;2022-07-18T03:42:21;11.23;;;6.85;;
52015;SDS011;38032;53.326;6.472;2022-07-18T03:44:47;10.40;;;6.60;;
52015;SDS011;38032;53.326;6.472;2022-07-18T03:47:13;10.27;;;6.80;;
52015;SDS011;38032;53.326;6.472;2022-07-18T03:49:39;9.70;;;7.10;;
52015;SDS011;38032;53.326;6.472;2022-07-18T03:52:05;15.43;;;6.88;;
52015;SDS011;38032;53.326;6.472;2022-07-18T03:54:30;10.07;;;6.72;;
52015;SDS011;38032;53.326;6.472;2022-07-18T03:56:56;9.77;;;6.55;;
52015;SDS011;38032;53.326;6.472;2022-07-18T03:59:22;10.15;;;6.32;;
52015;SDS011;38032;53.326;6.472;2022-07-18T04:01:48;10.27;;;6.28;;
52015;SDS011;38032;53.326;6.472;2022-07-18T04:04:14;11.13;;;6.85;;
52015;SDS011;38032;53.326;6.472;2022-07-18T04:06:39;9.68;;;6.30;;
52015;SDS011;38032;53.326;6.472;2022-07-18T04:09:05;9.15;;;5.88;;
52015;SDS011;38032;53.326;6.472;2022-07-18T04:11:31;12.55;;;6.72;;
52015;SDS011;38032;53.326;6.472;2022-07-18T04:13:57;9.15;;;6.18;;
52015;SDS011;38032;53.326;6.472;2022-07-18T04:16:23;10.25;;;6.45;;
52015;SDS011;38032;53.326;6.472;2022-07-18T04:18:49;9.38;;;5.88;;
52015;SDS011;38032;53.326;6.472;2022-07-18T04:21:15;11.43;;;6.47;;
52015;SDS011;38032;53.326;6.472;2022-07-18T04:23:42;9.57;;;5.97;;
52015;SDS011;38032;53.326;6.472;2022-07-18T04:26:08;9.13;;;5.43;;
52015;SDS011;38032;53.326;6.472;2022-07-18T04:28:34;8.70;;;5.45;;
52015;SDS011;38032;53.326;6.472;2022-07-18T04:31:00;9.73;;;6.07;;
52015;SDS011;38032;53.326;6.472;2022-07-18T04:33:26;11.40;;;6.22;;
52015;SDS011;38032;53.326;6.472;2022-07-18T04:35:52;8.57;;;5.78;;
52015;SDS011;38032;53.326;6.472;2022-07-18T04:38:18;7.50;;;5.50;;
52015;SDS011;38032;53.326;6.472;2022-07-18T04:40:44;8.23;;;5.70;;
52015;SDS011;38032;53.326;6.472;2022-07-18T04:43:10;9.15;;;5.32;;
52015;SDS011;38032;53.326;6.472;2022-07-18T04:45:36;8.68;;;5.40;;
52015;SDS011;38032;53.326;6.472;2022-07-18T04:48:03;8.13;;;5.60;;
52015;SDS011;38032;53.326;6.472;2022-07-18T04:50:30;11.05;;;5.38;;
52015;SDS011;38032;53.326;6.472;2022-07-18T04:52:57;7.18;;;5.53;;
52015;SDS011;38032;53.326;6.472;2022-07-18T04:55:23;9.27;;;5.88;;
52015;SDS011;38032;53.326;6.472;2022-07-18T04:57:50;9.82;;;5.60;;
52015;SDS011;38032;53.326;6.472;2022-07-18T05:00:18;7.63;;;5.18;;
52015;SDS011;38032;53.326;6.472;2022-07-18T05:02:46;8.80;;;5.20;;
52015;SDS011;38032;53.326;6.472;2022-07-18T05:05:15;9.55;;;5.05;;
52015;SDS011;38032;53.326;6.472;2022-07-18T05:07:42;8.00;;;5.20;;
52015;SDS011;38032;53.326;6.472;2022-07-18T05:10:09;8.30;;;5.63;;
52015;SDS011;38032;53.326;6.472;2022-07-18T05:12:37;9.73;;;5.15;;
52015;SDS011;38032;53.326;6.472;2022-07-18T05:15:04;8.68;;;5.07;;
52015;SDS011;38032;53.326;6.472;2022-07-18T05:17:31;11.82;;;5.68;;
52015;SDS011;38032;53.326;6.472;2022-07-18T05:19:57;9.73;;;5.63;;
52015;SDS011;38032;53.326;6.472;2022-07-18T05:22:23;7.22;;;5.05;;
52015;SDS011;38032;53.326;6.472;2022-07-18T05:24:49;8.38;;;5.38;;
52015;SDS011;38032;53.326;6.472;2022-07-18T05:27:15;8.98;;;5.20;;
52015;SDS011;38032;53.326;6.472;2022-07-18T05:29:40;13.00;;;5.40;;
52015;SDS011;38032;53.326;6.472;2022-07-18T05:32:06;7.65;;;4.97;;
52015;SDS011;38032;53.326;6.472;2022-07-18T05:34:33;10.57;;;5.95;;
52015;SDS011;38032;53.326;6.472;2022-07-18T05:36:59;8.57;;;5.30;;
52015;SDS011;38032;53.326;6.472;2022-07-18T05:39:25;9.95;;;5.22;;
52015;SDS011;38032;53.326;6.472;2022-07-18T05:41:52;7.90;;;4.80;;
52015;SDS011;38032;53.326;6.472;2022-07-18T05:44:23;7.30;;;4.85;;
52015;SDS011;38032;53.326;6.472;2022-07-18T05:46:49;6.93;;;4.60;;
52015;SDS011;38032;53.326;6.472;2022-07-18T05:49:16;9.48;;;5.07;;
52015;SDS011;38032;53.326;6.472;2022-07-18T05:51:42;7.68;;;4.93;;
52015;SDS011;38032;53.326;6.472;2022-07-18T05:54:08;7.22;;;4.30;;
52015;SDS011;38032;53.326;6.472;2022-07-18T05:56:34;10.80;;;4.63;;
52015;SDS011;38032;53.326;6.472;2022-07-18T05:58:59;6.65;;;4.40;;
52015;SDS011;38032;53.326;6.472;2022-07-18T06:01:25;6.28;;;4.13;;
52015;SDS011;38032;53.326;6.472;2022-07-18T06:03:51;8.23;;;4.60;;
52015;SDS011;38032;53.326;6.472;2022-07-18T06:06:17;7.03;;;4.25;;
52015;SDS011;38032;53.326;6.472;2022-07-18T06:08:44;9.63;;;3.95;;
52015;SDS011;38032;53.326;6.472;2022-07-18T06:11:10;6.93;;;4.50;;
52015;SDS011;38032;53.326;6.472;2022-07-18T06:13:37;9.00;;;4.43;;
52015;SDS011;38032;53.326;6.472;2022-07-18T06:16:05;7.68;;;4.32;;
52015;SDS011;38032;53.326;6.472;2022-07-18T06:18:32;9.02;;;4.40;;
52015;SDS011;38032;53.326;6.472;2022-07-18T06:21:01;6.68;;;4.00;;
52015;SDS011;38032;53.326;6.472;2022-07-18T06:23:28;8.82;;;4.28;;
52015;SDS011;38032;53.326;6.472;2022-07-18T06:25:54;6.22;;;4.07;;
52015;SDS011;38032;53.326;6.472;2022-07-18T06:28:20;7.80;;;4.13;;
52015;SDS011;38032;53.326;6.472;2022-07-18T06:30:47;9.40;;;3.88;;
52015;SDS011;38032;53.326;6.472;2022-07-18T06:33:12;7.05;;;3.63;;
52015;SDS011;38032;53.326;6.472;2022-07-18T06:35:39;7.38;;;3.97;;
52015;SDS011;38032;53.326;6.472;2022-07-18T06:38:05;6.28;;;3.88;;
52015;SDS011;38032;53.326;6.472;2022-07-18T06:40:31;7.03;;;3.78;;
52015;SDS011;38032;53.326;6.472;2022-07-18T06:42:57;5.97;;;3.50;;
52015;SDS011;38032;53.326;6.472;2022-07-18T06:45:23;5.68;;;3.88;;
52015;SDS011;38032;53.326;6.472;2022-07-18T06:47:49;6.50;;;3.70;;
52015;SDS011;38032;53.326;6.472;2022-07-18T06:50:15;8.48;;;3.40;;
52015;SDS011;38032;53.326;6.472;2022-07-18T06:52:42;7.90;;;3.60;;
52015;SDS011;38032;53.326;6.472;2022-07-18T06:55:09;6.38;;;3.50;;
52015;SDS011;38032;53.326;6.472;2022-07-18T06:57:36;6.00;;;3.30;;
52015;SDS011;38032;53.326;6.472;2022-07-18T07:00:03;6.13;;;3.63;;
52015;SDS011;38032;53.326;6.472;2022-07-18T07:02:30;5.32;;;3.20;;
52015;SDS011;38032;53.326;6.472;2022-07-18T07:04:55;6.10;;;3.25;;
52015;SDS011;38032;53.326;6.472;2022-07-18T07:07:21;4.82;;;3.10;;
52015;SDS011;38032;53.326;6.472;2022-07-18T07:09:47;5.80;;;3.33;;
52015;SDS011;38032;53.326;6.472;2022-07-18T07:12:13;5.88;;;2.97;;
52015;SDS011;38032;53.326;6.472;2022-07-18T07:14:39;5.07;;;3.35;;
52015;SDS011;38032;53.326;6.472;2022-07-18T07:17:04;4.68;;;3.00;;
52015;SDS011;38032;53.326;6.472;2022-07-18T07:19:30;7.43;;;3.00;;
52015;SDS011;38032;53.326;6.472;2022-07-18T07:21:56;6.22;;;3.00;;
52015;SDS011;38032;53.326;6.472;2022-07-18T07:24:22;5.78;;;3.10;;
52015;SDS011;38032;53.326;6.472;2022-07-18T07:26:48;7.38;;;2.60;;
52015;SDS011;38032;53.326;6.472;2022-07-18T07:29:14;5.10;;;2.78;;
52015;SDS011;38032;53.326;6.472;2022-07-18T07:31:41;7.00;;;2.90;;
52015;SDS011;38032;53.326;6.472;2022-07-18T07:34:07;6.68;;;3.03;;
52015;SDS011;38032;53.326;6.472;2022-07-18T07:36:34;4.60;;;2.85;;
52015;SDS011;38032;53.326;6.472;2022-07-18T07:39:00;5.35;;;2.60;;
52015;SDS011;38032;53.326;6.472;2022-07-18T07:41:26;6.15;;;2.80;;
52015;SDS011;38032;53.326;6.472;2022-07-18T07:43:52;5.63;;;2.90;;
52015;SDS011;38032;53.326;6.472;2022-07-18T07:46:18;6.03;;;2.60;;
52015;SDS011;38032;53.326;6.472;2022-07-18T07:48:44;4.20;;;2.33;;
52015;SDS011;38032;53.326;6.472;2022-07-18T07:51:13;3.70;;;2.33;;
52015;SDS011;38032;53.326;6.472;2022-07-18T07:53:39;4.03;;;2.38;;
52015;SDS011;38032;53.326;6.472;2022-07-18T07:56:05;4.88;;;2.40;;
52015;SDS011;38032;53.326;6.472;2022-07-18T07:58:30;4.63;;;2.65;;
52015;SDS011;38032;53.326;6.472;2022-07-18T08:00:57;4.93;;;2.75;;
52015;SDS011;38032;53.326;6.472;2022-07-18T08:03:23;4.70;;;2.33;;
52015;SDS011;38032;53.326;6.472;2022-07-18T08:05:49;5.20;;;2.38;;
52015;SDS011;38032;53.326;6.472;2022-07-18T08:08:15;4.57;;;2.50;;
52015;SDS011;38032;53.326;6.472;2022-07-18T08:10:42;4.97;;;2.40;;
52015;SDS011;38032;53.326;6.472;2022-07-18T08:13:09;3.63;;;2.40;;
52015;SDS011;38032;53.326;6.472;2022-07-18T08:15:35;7.85;;;2.85;;
52015;SDS011;38032;53.326;6.472;2022-07-18T08:18:01;4.95;;;2.30;;
52015;SDS011;38032;53.326;6.472;2022-07-18T08:20:27;4.78;;;2.40;;
52015;SDS011;38032;53.326;6.472;2022-07-18T08:25:19;6.47;;;2.83;;
52015;SDS011;38032;53.326;6.472;2022-07-18T08:27:46;4.15;;;2.58;;
52015;SDS011;38032;53.326;6.472;2022-07-18T08:30:12;6.10;;;2.70;;
52015;SDS011;38032;53.326;6.472;2022-07-18T08:32:37;5.32;;;2.30;;
52015;SDS011;38032;53.326;6.472;2022-07-18T08:35:03;3.78;;;2.17;;
52015;SDS011;38032;53.326;6.472;2022-07-18T08:37:30;4.45;;;2.30;;
52015;SDS011;38032;53.326;6.472;2022-07-18T08:39:56;5.63;;;2.53;;
52015;SDS011;38032;53.326;6.472;2022-07-18T08:42:24;3.97;;;2.28;;
52015;SDS011;38032;53.326;6.472;2022-07-18T08:44:52;5.20;;;2.05;;
52015;SDS011;38032;53.326;6.472;2022-07-18T08:47:20;4.40;;;2.10;;
52015;SDS011;38032;53.326;6.472;2022-07-18T08:49:47;4.80;;;2.08;;
52015;SDS011;38032;53.326;6.472;2022-07-18T08:52:14;3.85;;;2.13;;
52015;SDS011;38032;53.326;6.472;2022-07-18T08:54:40;6.90;;;2.20;;
52015;SDS011;38032;53.326;6.472;2022-07-18T08:57:07;5.55;;;2.17;;
52015;SDS011;38032;53.326;6.472;2022-07-18T08:59:33;5.95;;;2.03;;
52015;SDS011;38032;53.326;6.472;2022-07-18T09:01:59;6.55;;;2.47;;
52015;SDS011;38032;53.326;6.472;2022-07-18T09:04:34;4.88;;;2.50;;
52015;SDS011;38032;53.326;6.472;2022-07-18T09:07:02;3.70;;;2.03;;
52015;SDS011;38032;53.326;6.472;2022-07-18T09:09:29;6.30;;;3.00;;
52015;SDS011;38032;53.326;6.472;2022-07-18T09:11:58;3.60;;;1.95;;
52015;SDS011;38032;53.326;6.472;2022-07-18T09:14:30;7.03;;;2.40;;
52015;SDS011;38032;53.326;6.472;2022-07-18T09:17:05;3.83;;;1.90;;
52015;SDS011;38032;53.326;6.472;2022-07-18T09:19:31;5.63;;;2.20;;
52015;SDS011;38032;53.326;6.472;2022-07-18T09:22:10;4.10;;;2.35;;
52015;SDS011;38032;53.326;6.472;2022-07-18T09:24:51;5.03;;;2.00;;
52015;SDS011;38032;53.326;6.472;2022-07-18T09:27:23;5.65;;;2.08;;
52015;SDS011;38032;53.326;6.472;2022-07-18T09:30:10;7.68;;;2.22;;
52015;SDS011;38032;53.326;6.472;2022-07-18T09:32:40;4.43;;;1.92;;
52015;SDS011;38032;53.326;6.472;2022-07-18T09:35:09;6.10;;;2.10;;
52015;SDS011;38032;53.326;6.472;2022-07-18T09:37:36;4.47;;;1.92;;
52015;SDS011;38032;53.326;6.472;2022-07-18T09:42:53;11.90;;;3.47;;
52015;SDS011;38032;53.326;6.472;2022-07-18T09:45:24;4.20;;;2.00;;
52015;SDS011;38032;53.326;6.472;2022-07-18T09:47:52;6.70;;;2.15;;
52015;SDS011;38032;53.326;6.472;2022-07-18T09:50:27;3.92;;;1.77;;
52015;SDS011;38032;53.326;6.472;2022-07-18T09:53:02;4.07;;;2.17;;
52015;SDS011;38032;53.326;6.472;2022-07-18T09:55:30;12.10;;;3.38;;
52015;SDS011;38032;53.326;6.472;2022-07-18T09:57:57;7.38;;;2.60;;
52015;SDS011;38032;53.326;6.472;2022-07-18T10:00:25;8.30;;;3.00;;
52015;SDS011;38032;53.326;6.472;2022-07-18T10:02:52;6.20;;;2.00;;
52015;SDS011;38032;53.326;6.472;2022-07-18T10:05:19;7.35;;;2.33;;
52015;SDS011;38032;53.326;6.472;2022-07-18T10:07:45;4.35;;;2.22;;
52015;SDS011;38032;53.326;6.472;2022-07-18T10:10:13;4.88;;;2.20;;
52015;SDS011;38032;53.326;6.472;2022-07-18T10:12:41;4.72;;;2.15;;
52015;SDS011;38032;53.326;6.472;2022-07-18T10:15:08;3.67;;;2.20;;
52015;SDS011;38032;53.326;6.472;2022-07-18T10:17:34;4.63;;;2.10;;
52015;SDS011;38032;53.326;6.472;2022-07-18T10:20:04;4.50;;;2.05;;
52015;SDS011;38032;53.326;6.472;2022-07-18T10:22:35;3.70;;;2.28;;
52015;SDS011;38032;53.326;6.472;2022-07-18T10:25:04;4.97;;;2.13;;
52015;SDS011;38032;53.326;6.472;2022-07-18T10:27:48;7.40;;;2.60;;
52015;SDS011;38032;53.326;6.472;2022-07-18T10:30:15;4.05;;;2.08;;
52015;SDS011;38032;53.326;6.472;2022-07-18T10:32:42;4.78;;;2.38;;
52015;SDS011;38032;53.326;6.472;2022-07-18T10:35:08;3.95;;;2.13;;
52015;SDS011;38032;53.326;6.472;2022-07-18T10:37:36;5.63;;;2.80;;
52015;SDS011;38032;53.326;6.472;2022-07-18T10:43:30;4.50;;;2.70;;
52015;SDS011;38032;53.326;6.472;2022-07-18T10:45:59;4.78;;;2.28;;
52015;SDS011;38032;53.326;6.472;2022-07-18T10:50:59;4.40;;;2.28;;
52015;SDS011;38032;53.326;6.472;2022-07-18T10:58:55;5.32;;;2.50;;
52015;SDS011;38032;53.326;6.472;2022-07-18T11:01:22;4.72;;;2.67;;
52015;SDS011;38032;53.326;6.472;2022-07-18T11:03:49;3.78;;;2.67;;
52015;SDS011;38032;53.326;6.472;2022-07-18T11:06:15;4.80;;;2.50;;
52015;SDS011;38032;53.326;6.472;2022-07-18T11:08:41;5.72;;;2.80;;
52015;SDS011;38032;53.326;6.472;2022-07-18T11:11:08;5.55;;;2.92;;
52015;SDS011;38032;53.326;6.472;2022-07-18T11:13:37;4.35;;;2.63;;
52015;SDS011;38032;53.326;6.472;2022-07-18T11:16:10;4.15;;;2.55;;
52015;SDS011;38032;53.326;6.472;2022-07-18T11:21:24;6.68;;;3.15;;
52015;SDS011;38032;53.326;6.472;2022-07-18T11:23:53;6.70;;;3.00;;
52015;SDS011;38032;53.326;6.472;2022-07-18T11:26:24;6.03;;;3.05;;
52015;SDS011;38032;53.326;6.472;2022-07-18T11:28:57;5.15;;;2.70;;
52015;SDS011;38032;53.326;6.472;2022-07-18T11:31:26;4.38;;;2.80;;
52015;SDS011;38032;53.326;6.472;2022-07-18T11:33:53;4.50;;;3.00;;
52015;SDS011;38032;53.326;6.472;2022-07-18T11:36:20;5.18;;;3.30;;
52015;SDS011;38032;53.326;6.472;2022-07-18T11:38:49;4.45;;;3.00;;
52015;SDS011;38032;53.326;6.472;2022-07-18T11:41:15;4.78;;;3.20;;
52015;SDS011;38032;53.326;6.472;2022-07-18T11:43:43;4.22;;;3.35;;
52015;SDS011;38032;53.326;6.472;2022-07-18T11:46:10;5.35;;;2.97;;
52015;SDS011;38032;53.326;6.472;2022-07-18T11:48:40;4.70;;;3.17;;
52015;SDS011;38032;53.326;6.472;2022-07-18T11:51:13;6.55;;;3.53;;
52015;SDS011;38032;53.326;6.472;2022-07-18T11:53:42;5.22;;;3.35;;
52015;SDS011;38032;53.326;6.472;2022-07-18T11:56:09;8.20;;;3.70;;
52015;SDS011;38032;53.326;6.472;2022-07-18T11:58:35;4.05;;;3.20;;
52015;SDS011;38032;53.326;6.472;2022-07-18T12:01:02;6.43;;;3.00;;
52015;SDS011;38032;53.326;6.472;2022-07-18T12:03:29;8.95;;;3.72;;
52015;SDS011;38032;53.326;6.472;2022-07-18T12:05:56;3.80;;;2.95;;
52015;SDS011;38032;53.326;6.472;2022-07-18T12:13:49;8.05;;;3.35;;
52015;SDS011;38032;53.326;6.472;2022-07-18T12:16:22;5.03;;;3.05;;
52015;SDS011;38032;53.326;6.472;2022-07-18T12:21:44;5.10;;;2.90;;
52015;SDS011;38032;53.326;6.472;2022-07-18T12:32:42;5.20;;;3.42;;
52015;SDS011;38032;53.326;6.472;2022-07-18T12:35:15;4.22;;;3.13;;
52015;SDS011;38032;53.326;6.472;2022-07-18T12:37:52;4.93;;;3.50;;
52015;SDS011;38032;53.326;6.472;2022-07-18T12:40:22;6.22;;;3.55;;
52015;SDS011;38032;53.326;6.472;2022-07-18T12:42:48;6.32;;;3.30;;
52015;SDS011;38032;53.326;6.472;2022-07-18T12:45:14;6.00;;;3.28;;
52015;SDS011;38032;53.326;6.472;2022-07-18T12:47:41;5.05;;;3.22;;
52015;SDS011;38032;53.326;6.472;2022-07-18T12:50:07;5.20;;;3.22;;
52015;SDS011;38032;53.326;6.472;2022-07-18T12:52:33;3.95;;;2.97;;
52015;SDS011;38032;53.326;6.472;2022-07-18T12:54:59;4.43;;;3.20;;
52015;SDS011;38032;53.326;6.472;2022-07-18T12:57:25;5.13;;;3.40;;
52015;SDS011;38032;53.326;6.472;2022-07-18T12:59:51;7.18;;;3.22;;
52015;SDS011;38032;53.326;6.472;2022-07-18T13:02:17;6.65;;;3.17;;
52015;SDS011;38032;53.326;6.472;2022-07-18T13:04:44;8.82;;;3.38;;
52015;SDS011;38032;53.326;6.472;2022-07-18T13:07:10;5.85;;;3.03;;
52015;SDS011;38032;53.326;6.472;2022-07-18T13:09:36;6.90;;;3.50;;
52015;SDS011;38032;53.326;6.472;2022-07-18T13:12:03;5.68;;;3.42;;
52015;SDS011;38032;53.326;6.472;2022-07-18T13:14:29;5.32;;;3.20;;
52015;SDS011;38032;53.326;6.472;2022-07-18T13:16:54;6.22;;;3.20;;
52015;SDS011;38032;53.326;6.472;2022-07-18T13:19:21;4.72;;;3.10;;
52015;SDS011;38032;53.326;6.472;2022-07-18T13:21:47;5.60;;;3.60;;
52015;SDS011;38032;53.326;6.472;2022-07-18T13:24:13;5.78;;;3.53;;
52015;SDS011;38032;53.326;6.472;2022-07-18T13:26:40;6.60;;;3.05;;
52015;SDS011;38032;53.326;6.472;2022-07-18T13:29:07;4.18;;;3.30;;
52015;SDS011;38032;53.326;6.472;2022-07-18T13:31:34;4.55;;;3.50;;
52015;SDS011;38032;53.326;6.472;2022-07-18T13:34:01;5.22;;;3.42;;
52015;SDS011;38032;53.326;6.472;2022-07-18T13:36:28;6.47;;;3.45;;
52015;SDS011;38032;53.326;6.472;2022-07-18T13:38:54;7.53;;;3.58;;
52015;SDS011;38032;53.326;6.472;2022-07-18T13:41:20;5.20;;;3.38;;
52015;SDS011;38032;53.326;6.472;2022-07-18T13:43:46;6.70;;;4.15;;
52015;SDS011;38032;53.326;6.472;2022-07-18T13:46:12;6.18;;;4.22;;
52015;SDS011;38032;53.326;6.472;2022-07-18T13:48:38;7.18;;;4.07;;
52015;SDS011;38032;53.326;6.472;2022-07-18T13:51:05;5.55;;;3.50;;
52015;SDS011;38032;53.326;6.472;2022-07-18T13:53:31;4.88;;;3.88;;
52015;SDS011;38032;53.326;6.472;2022-07-18T13:55:57;8.80;;;4.00;;
52015;SDS011;38032;53.326;6.472;2022-07-18T13:58:23;4.82;;;3.70;;
52015;SDS011;38032;53.326;6.472;2022-07-18T14:00:49;6.60;;;3.97;;
52015;SDS011;38032;53.326;6.472;2022-07-18T14:03:15;7.38;;;3.58;;
52015;SDS011;38032;53.326;6.472;2022-07-18T14:05:41;5.28;;;3.30;;
52015;SDS011;38032;53.326;6.472;2022-07-18T14:08:08;6.63;;;3.80;;
52015;SDS011;38032;53.326;6.472;2022-07-18T14:10:34;5.00;;;3.20;;
52015;SDS011;38032;53.326;6.472;2022-07-18T14:13:00;6.00;;;3.42;;
52015;SDS011;38032;53.326;6.472;2022-07-18T14:15:26;6.85;;;3.28;;
52015;SDS011;38032;53.326;6.472;2022-07-18T14:17:52;5.57;;;3.05;;
52015;SDS011;38032;53.326;6.472;2022-07-18T14:20:18;6.78;;;3.35;;
52015;SDS011;38032;53.326;6.472;2022-07-18T14:22:46;6.47;;;3.85;;
52015;SDS011;38032;53.326;6.472;2022-07-18T14:25:13;6.03;;;3.35;;
52015;SDS011;38032;53.326;6.472;2022-07-18T14:27:41;5.15;;;3.55;;
52015;SDS011;38032;53.326;6.472;2022-07-18T14:30:08;6.47;;;3.42;;
52015;SDS011;38032;53.326;6.472;2022-07-18T14:32:36;5.35;;;3.35;;
52015;SDS011;38032;53.326;6.472;2022-07-18T14:35:02;5.40;;;3.40;;
52015;SDS011;38032;53.326;6.472;2022-07-18T14:37:29;6.63;;;3.60;;
52015;SDS011;38032;53.326;6.472;2022-07-18T14:39:54;5.35;;;3.70;;
52015;SDS011;38032;53.326;6.472;2022-07-18T14:42:20;6.20;;;3.55;;
52015;SDS011;38032;53.326;6.472;2022-07-18T14:44:46;5.05;;;3.42;;
52015;SDS011;38032;53.326;6.472;2022-07-18T14:47:12;5.40;;;3.50;;
52015;SDS011;38032;53.326;6.472;2022-07-18T14:49:38;5.78;;;3.50;;
52015;SDS011;38032;53.326;6.472;2022-07-18T14:52:04;4.88;;;3.25;;
52015;SDS011;38032;53.326;6.472;2022-07-18T14:54:29;7.03;;;3.63;;
52015;SDS011;38032;53.326;6.472;2022-07-18T14:56:55;6.30;;;3.67;;
52015;SDS011;38032;53.326;6.472;2022-07-18T14:59:22;6.93;;;3.40;;
52015;SDS011;38032;53.326;6.472;2022-07-18T15:01:48;8.27;;;3.67;;
52015;SDS011;38032;53.326;6.472;2022-07-18T15:04:14;5.22;;;3.47;;
52015;SDS011;38032;53.326;6.472;2022-07-18T15:06:41;5.55;;;3.40;;
52015;SDS011;38032;53.326;6.472;2022-07-18T15:09:07;5.15;;;3.38;;
52015;SDS011;38032;53.326;6.472;2022-07-18T15:11:35;5.50;;;3.30;;
52015;SDS011;38032;53.326;6.472;2022-07-18T15:14:01;6.63;;;2.90;;
52015;SDS011;38032;53.326;6.472;2022-07-18T15:16:27;6.53;;;3.40;;
52015;SDS011;38032;53.326;6.472;2022-07-18T15:18:52;5.47;;;3.30;;